METAR Data
IDs: Format: Raw Decoded Include TAF

Data at: 2230 UTC 19 Apr 2021

Region: TOP
KATL 192152Z 28004KT 10SM FEW250 21/04 A2993 RMK AO2 SLP132 T02110039

KBOS 192154Z 08007KT 10SM BKN080 BKN220 13/06 A2979 RMK AO2 SLP086 T01330061

KBWI 192154Z 14005KT 10SM SCT140 SCT200 16/06 A2984 RMK AO2 SLP104 T01610056

KCLE 192151Z 24013G23KT 10SM OVC085 17/00 A2976 RMK AO2 SLP093 T01670000

KCLT 192152Z 00000KT 10SM SCT075 22/04 A2988 RMK AO2 SLP114 T02220039

KCVG 192152Z 22013G21KT 10SM FEW070 FEW300 19/02 A2987 RMK AO2 SLP110 T01890017

KDCA 192152Z 19007KT 10SM FEW050 FEW250 17/07 A2986 RMK AO2 SLP110 T01670072

KDEN 192213Z 07013KT 1 3/4SM -SN BR BKN005 OVC009 M03/M04 A3004 RMK AO2 TWR VIS 2 FZDZE13 P0001 I1000 T10281044 $

KDFW 192153Z 28004KT 10SM FEW030 BKN250 23/00 A2994 RMK AO2 SLP134 T02280000

KDTW 192153Z 29015KT 6SM -RA FEW034 BKN045 OVC060 09/04 A2981 RMK AO2 PK WND 30026/2143 SLP096 P0000 T00940044

KEWR 192151Z 18010KT 10SM FEW055 FEW100 SCT200 BKN250 18/06 A2980 RMK AO2 SLP090 T01780056 $

KFLL 192153Z 32010G23KT 270V360 10SM FEW040 SCT048 BKN250 31/22 A2989 RMK AO2 PK WND 24026/2105 LTG DSNT N AND NW SLP121 CB DSNT N AND NW MOV NE T03060222

KIAD 192152Z 16005KT 10SM FEW050 FEW080 FEW250 17/07 A2984 RMK AO2 SLP104 T01670067

KIAH 192153Z 15010KT 10SM BKN130 BKN250 22/05 A2997 RMK AO2 SLP148 T02170050

KJFK 192151Z 19005KT 10SM FEW060 FEW110 BKN210 BKN250 14/08 A2983 RMK AO2 SLP099 T01390078

KLAS 192156Z 24011G17KT 10SM FEW250 30/M16 A2989 RMK AO2 SLP104 T03001156

KLAX 192153Z 24012KT 10SM FEW010 FEW250 21/13 A2998 RMK AO2 SLP150 T02060133 $

KLGA 192151Z 19008KT 10SM FEW055 SCT140 BKN200 17/03 A2980 RMK AO2 SLP091 T01670033

KMCO 192153Z 23004KT 10SM -RA FEW017 SCT047 BKN110 BKN250 23/18 A2990 RMK AO2 RAB52 SLP124 P0000 T02280178

KMDW 192153Z 26012G19KT 10SM FEW015 BKN055 OVC070 08/M02 A2990 RMK AO2 SLP128 T00831017

KMEM 192154Z 23007KT 10SM SCT250 21/04 A2997 RMK AO2 SLP148 T02060039 $

KMIA 192153Z 26011G19KT 10SM FEW045CB FEW110 OVC250 31/22 A2990 RMK AO2 LTG DSNT N SLP124 CB E-S MOV NE T03110222

KMSP 192153Z 33010G21KT 10SM FEW050 OVC065 03/M07 A3001 RMK AO2 SNE02 SLP172 PRESENT WX VCSH P0000 T00331072

KORD 192151Z 31010KT 10SM SCT050 BKN090 BKN200 OVC250 09/M03 A2989 RMK AO2 SLP121 T00941033 $

KPDX 192153Z 07013KT 10SM BKN250 22/01 A3018 RMK AO2 SLP220 T02220011

KPHL 192154Z 22010KT 10SM FEW045 FEW150 BKN230 16/06 A2983 RMK AO2 SLP102 T01610056

KPHX 192151Z VRB03KT 10SM FEW120 29/M04 A2988 RMK AO2 SLP103 T02891039

KPIT 192151Z 24013G19KT 10SM FEW050 SCT095 SCT250 17/M02 A2982 RMK AO2 SLP106 T01671017

KSAN 192151Z 31008KT 10SM CLR 23/13 A2999 RMK AO2 SLP154 T02330133

KSEA 192153Z 00000KT 10SM FEW040 SCT250 21/05 A3021 RMK AO2 SLP235 T02060050

KSFO 192156Z 30017KT 10SM FEW010 FEW021 16/08 A3009 RMK AO2 SLP188 T01610078

KSLC 192154Z COR 32023G33KT 8SM BKN046 OVC060 14/M01 A2995 RMK AO2 PK WND 33047/2122 RAB06E48 CIG 037 NW RNWY SLP119 VCSH BLDU VC ALQDS P0000 T01391011

KSTL 192151Z 23012G18KT 10SM BKN090 BKN250 22/02 A2988 RMK AO2 SLP115 T02170022

KTPA 192153Z 06003KT 10SM SCT011 BKN065 BKN140 BKN250 23/18 A2990 RMK AO2 SLP126 T02280178